Centennial Airport Denver US
ICAO: KAPA
IATA: APA
Category: Medium
Scheduled Services: No

Elevation: 5885 ft
TransAlt. 18000 ft.

Airport Communications:
DENVER APP/DEP:132.75
ATIS:120.3
CLNC DEL:128.6
GND:121.8
DENVER RDO:122.2
TWR:118.9
UNICOM:122.95

KAPA Zoom In..

If you have problems with the map follow the link
https://www.worldairports.se/pages/airport.php?
ICAO=KAPA

Runways:

(A) RW 10 length 4800 ft width 75 ft
---- / hdg 100

(B) RW 17L length 10001 ft width 100 ft
---- / hdg 167

(C) RW 17R length 7000 ft width 77 ft
---- / hdg 167

(D) RW 28 length 4800 ft width 75 ft
---- / hdg 280

(E) RW 35L length 7000 ft width 77 ft
---- / hdg 347

(F) RW 35R length 10001 ft width 100 ft
ILS 111.30 / hdg 347

Location; KAPA
Day. 13 / Time. 19.53 Zulu
* Altimeter: 29.92
* Temperature: 07° c. 44.6°f.
* Wind from: 320° Speed 30 kn with Gusts up to 46 kn.
Dewpoint: -12° c.
Visibility: 10 Statute Miles.
Clouds: Few 7000 ft.
Clouds: Scattered 11000 ft.
Clouds: Broken 2000 ft.
Conditions: Snow Showers.

KAPA 131953Z 32030G46KT 10SM FEW070 SCT110 BKN200 07/M12 A2992 RMK AO2 PK WND 32048/1929 SLP131 SHSN DSNT W T00671117


Wind From 320°
Speed 30 kn.

 
 
jpsmedia worldairports.se 2019   terms of use